sensor_id;sensor_type;location;lat;lon;timestamp;temperature;humidity
14771;DHT22;7477;45.222;5.688;2022-07-09T00:01:05;22.50;67.60
14771;DHT22;7477;45.222;5.688;2022-07-09T00:04:24;22.00;68.70
14771;DHT22;7477;45.222;5.688;2022-07-09T00:07:44;21.60;68.80
14771;DHT22;7477;45.222;5.688;2022-07-09T00:11:03;21.60;69.20
14771;DHT22;7477;45.222;5.688;2022-07-09T00:14:23;21.70;69.50
14771;DHT22;7477;45.222;5.688;2022-07-09T00:17:42;22.00;68.50
14771;DHT22;7477;45.222;5.688;2022-07-09T00:21:01;21.60;69.40
14771;DHT22;7477;45.222;5.688;2022-07-09T00:24:21;21.40;69.40
14771;DHT22;7477;45.222;5.688;2022-07-09T00:27:40;21.10;70.60
14771;DHT22;7477;45.222;5.688;2022-07-09T00:30:59;21.00;71.60
14771;DHT22;7477;45.222;5.688;2022-07-09T00:34:19;20.90;72.00
14771;DHT22;7477;45.222;5.688;2022-07-09T00:37:38;20.80;73.10
14771;DHT22;7477;45.222;5.688;2022-07-09T00:40:58;20.60;73.50
14771;DHT22;7477;45.222;5.688;2022-07-09T00:44:17;20.50;74.50
14771;DHT22;7477;45.222;5.688;2022-07-09T00:47:37;20.40;75.00
14771;DHT22;7477;45.222;5.688;2022-07-09T00:50:56;20.50;74.90
14771;DHT22;7477;45.222;5.688;2022-07-09T00:54:15;20.40;75.40
14771;DHT22;7477;45.222;5.688;2022-07-09T00:57:34;20.20;75.80
14771;DHT22;7477;45.222;5.688;2022-07-09T01:00:55;20.20;75.40
14771;DHT22;7477;45.222;5.688;2022-07-09T01:04:15;20.10;75.90
14771;DHT22;7477;45.222;5.688;2022-07-09T01:07:34;20.20;75.40
14771;DHT22;7477;45.222;5.688;2022-07-09T01:10:53;20.20;75.10
14771;DHT22;7477;45.222;5.688;2022-07-09T01:14:13;20.10;75.20
14771;DHT22;7477;45.222;5.688;2022-07-09T01:17:40;20.10;75.10
14771;DHT22;7477;45.222;5.688;2022-07-09T01:21:00;20.10;74.90
14771;DHT22;7477;45.222;5.688;2022-07-09T01:24:19;20.10;74.80
14771;DHT22;7477;45.222;5.688;2022-07-09T01:27:38;20.10;74.60
14771;DHT22;7477;45.222;5.688;2022-07-09T01:30:58;20.00;74.60
14771;DHT22;7477;45.222;5.688;2022-07-09T01:34:17;19.90;74.50
14771;DHT22;7477;45.222;5.688;2022-07-09T01:37:36;19.80;75.70
14771;DHT22;7477;45.222;5.688;2022-07-09T01:40:55;19.70;76.10
14771;DHT22;7477;45.222;5.688;2022-07-09T01:44:15;19.70;76.40
14771;DHT22;7477;45.222;5.688;2022-07-09T01:47:35;19.60;77.10
14771;DHT22;7477;45.222;5.688;2022-07-09T01:50:54;19.50;77.70
14771;DHT22;7477;45.222;5.688;2022-07-09T01:54:14;19.50;78.20
14771;DHT22;7477;45.222;5.688;2022-07-09T01:57:33;19.40;78.90
14771;DHT22;7477;45.222;5.688;2022-07-09T02:00:52;19.30;79.30
14771;DHT22;7477;45.222;5.688;2022-07-09T02:04:11;19.30;79.80
14771;DHT22;7477;45.222;5.688;2022-07-09T02:07:30;19.20;80.00
14771;DHT22;7477;45.222;5.688;2022-07-09T02:10:50;19.20;80.20
14771;DHT22;7477;45.222;5.688;2022-07-09T02:14:09;19.10;81.10
14771;DHT22;7477;45.222;5.688;2022-07-09T02:17:28;19.10;81.30
14771;DHT22;7477;45.222;5.688;2022-07-09T02:20:47;19.00;80.80
14771;DHT22;7477;45.222;5.688;2022-07-09T02:24:07;19.00;81.40
14771;DHT22;7477;45.222;5.688;2022-07-09T02:27:26;19.00;81.70
14771;DHT22;7477;45.222;5.688;2022-07-09T02:30:46;18.90;81.30
14771;DHT22;7477;45.222;5.688;2022-07-09T02:34:05;18.90;82.10
14771;DHT22;7477;45.222;5.688;2022-07-09T02:37:24;18.80;82.40
14771;DHT22;7477;45.222;5.688;2022-07-09T02:40:43;18.70;82.50
14771;DHT22;7477;45.222;5.688;2022-07-09T02:44:03;18.70;83.40
14771;DHT22;7477;45.222;5.688;2022-07-09T02:47:22;18.70;83.40
14771;DHT22;7477;45.222;5.688;2022-07-09T02:50:41;18.60;84.00
14771;DHT22;7477;45.222;5.688;2022-07-09T02:54:00;18.60;84.60
14771;DHT22;7477;45.222;5.688;2022-07-09T02:57:20;18.60;84.30
14771;DHT22;7477;45.222;5.688;2022-07-09T03:00:40;18.60;84.40
14771;DHT22;7477;45.222;5.688;2022-07-09T03:03:59;18.60;84.20
14771;DHT22;7477;45.222;5.688;2022-07-09T03:07:18;18.50;84.60
14771;DHT22;7477;45.222;5.688;2022-07-09T03:10:37;18.40;85.60
14771;DHT22;7477;45.222;5.688;2022-07-09T03:13:56;18.40;86.10
14771;DHT22;7477;45.222;5.688;2022-07-09T03:17:15;18.30;86.60
14771;DHT22;7477;45.222;5.688;2022-07-09T03:20:35;18.30;87.00
14771;DHT22;7477;45.222;5.688;2022-07-09T03:23:55;18.30;87.40
14771;DHT22;7477;45.222;5.688;2022-07-09T03:27:14;18.30;87.10
14771;DHT22;7477;45.222;5.688;2022-07-09T03:30:33;18.20;87.50
14771;DHT22;7477;45.222;5.688;2022-07-09T03:33:52;18.20;88.00
14771;DHT22;7477;45.222;5.688;2022-07-09T03:37:12;18.10;88.60
14771;DHT22;7477;45.222;5.688;2022-07-09T03:40:32;18.10;88.60
14771;DHT22;7477;45.222;5.688;2022-07-09T03:43:51;18.00;89.00
14771;DHT22;7477;45.222;5.688;2022-07-09T03:47:10;18.00;89.40
14771;DHT22;7477;45.222;5.688;2022-07-09T03:50:30;18.00;89.40
14771;DHT22;7477;45.222;5.688;2022-07-09T03:53:50;18.00;90.00
14771;DHT22;7477;45.222;5.688;2022-07-09T03:57:11;17.90;88.50
14771;DHT22;7477;45.222;5.688;2022-07-09T04:00:30;17.90;88.20
14771;DHT22;7477;45.222;5.688;2022-07-09T04:03:50;18.00;87.70
14771;DHT22;7477;45.222;5.688;2022-07-09T04:07:09;18.00;87.80
14771;DHT22;7477;45.222;5.688;2022-07-09T04:10:29;17.90;88.10
14771;DHT22;7477;45.222;5.688;2022-07-09T04:13:48;17.90;88.20
14771;DHT22;7477;45.222;5.688;2022-07-09T04:17:07;17.90;87.90
14771;DHT22;7477;45.222;5.688;2022-07-09T04:20:27;18.00;87.80
14771;DHT22;7477;45.222;5.688;2022-07-09T04:23:47;17.90;88.30
14771;DHT22;7477;45.222;5.688;2022-07-09T04:27:06;17.90;88.80
14771;DHT22;7477;45.222;5.688;2022-07-09T04:30:26;17.90;89.50
14771;DHT22;7477;45.222;5.688;2022-07-09T04:33:46;17.90;89.30
14771;DHT22;7477;45.222;5.688;2022-07-09T04:37:06;17.80;89.20
14771;DHT22;7477;45.222;5.688;2022-07-09T04:40:25;17.80;89.50
14771;DHT22;7477;45.222;5.688;2022-07-09T04:43:44;17.70;89.40
14771;DHT22;7477;45.222;5.688;2022-07-09T04:47:03;17.70;89.20
14771;DHT22;7477;45.222;5.688;2022-07-09T04:50:23;17.70;88.60
14771;DHT22;7477;45.222;5.688;2022-07-09T04:53:43;17.70;89.80
14771;DHT22;7477;45.222;5.688;2022-07-09T04:57:03;17.70;90.00
14771;DHT22;7477;45.222;5.688;2022-07-09T05:00:22;17.70;90.20
14771;DHT22;7477;45.222;5.688;2022-07-09T05:03:42;17.70;90.20
14771;DHT22;7477;45.222;5.688;2022-07-09T05:07:01;17.70;90.20
14771;DHT22;7477;45.222;5.688;2022-07-09T05:10:20;17.60;90.20
14771;DHT22;7477;45.222;5.688;2022-07-09T05:13:39;17.60;90.50
14771;DHT22;7477;45.222;5.688;2022-07-09T05:17:01;17.50;90.90
14771;DHT22;7477;45.222;5.688;2022-07-09T05:20:21;17.50;90.80
14771;DHT22;7477;45.222;5.688;2022-07-09T05:23:40;17.60;90.40
14771;DHT22;7477;45.222;5.688;2022-07-09T05:26:59;17.60;90.80
14771;DHT22;7477;45.222;5.688;2022-07-09T05:30:18;17.50;90.90
14771;DHT22;7477;45.222;5.688;2022-07-09T05:33:37;17.50;91.00
14771;DHT22;7477;45.222;5.688;2022-07-09T05:36:56;17.50;90.90
14771;DHT22;7477;45.222;5.688;2022-07-09T05:40:16;17.50;90.90
14771;DHT22;7477;45.222;5.688;2022-07-09T05:43:36;17.50;91.40
14771;DHT22;7477;45.222;5.688;2022-07-09T05:46:55;17.50;91.50
14771;DHT22;7477;45.222;5.688;2022-07-09T05:50:14;17.60;91.60
14771;DHT22;7477;45.222;5.688;2022-07-09T05:53:33;17.50;91.40
14771;DHT22;7477;45.222;5.688;2022-07-09T05:56:52;17.50;91.70
14771;DHT22;7477;45.222;5.688;2022-07-09T06:00:12;17.50;92.00
14771;DHT22;7477;45.222;5.688;2022-07-09T06:03:31;17.50;92.30
14771;DHT22;7477;45.222;5.688;2022-07-09T06:06:50;17.40;90.40
14771;DHT22;7477;45.222;5.688;2022-07-09T06:10:09;17.50;90.30
14771;DHT22;7477;45.222;5.688;2022-07-09T06:13:29;17.50;90.40
14771;DHT22;7477;45.222;5.688;2022-07-09T06:16:48;17.50;90.60
14771;DHT22;7477;45.222;5.688;2022-07-09T06:20:08;17.50;91.10
14771;DHT22;7477;45.222;5.688;2022-07-09T06:23:28;17.50;91.20
14771;DHT22;7477;45.222;5.688;2022-07-09T06:26:47;17.50;91.40
14771;DHT22;7477;45.222;5.688;2022-07-09T06:30:06;17.50;90.90
14771;DHT22;7477;45.222;5.688;2022-07-09T06:33:27;17.60;90.60
14771;DHT22;7477;45.222;5.688;2022-07-09T06:36:47;17.60;90.60
14771;DHT22;7477;45.222;5.688;2022-07-09T06:40:08;17.70;91.10
14771;DHT22;7477;45.222;5.688;2022-07-09T06:43:27;17.70;91.80
14771;DHT22;7477;45.222;5.688;2022-07-09T06:46:46;17.60;92.10
14771;DHT22;7477;45.222;5.688;2022-07-09T06:50:06;17.70;92.90
14771;DHT22;7477;45.222;5.688;2022-07-09T06:53:25;17.60;92.70
14771;DHT22;7477;45.222;5.688;2022-07-09T06:56:44;17.60;92.90
14771;DHT22;7477;45.222;5.688;2022-07-09T07:00:05;17.60;93.10
14771;DHT22;7477;45.222;5.688;2022-07-09T07:03:25;17.60;91.70
14771;DHT22;7477;45.222;5.688;2022-07-09T07:06:44;17.70;91.90
14771;DHT22;7477;45.222;5.688;2022-07-09T07:10:05;17.80;91.40
14771;DHT22;7477;45.222;5.688;2022-07-09T07:13:25;17.90;91.20
14771;DHT22;7477;45.222;5.688;2022-07-09T07:16:45;18.10;91.70
14771;DHT22;7477;45.222;5.688;2022-07-09T07:20:04;18.20;91.40
14771;DHT22;7477;45.222;5.688;2022-07-09T07:23:23;18.20;91.00
14771;DHT22;7477;45.222;5.688;2022-07-09T07:26:42;18.40;90.70
14771;DHT22;7477;45.222;5.688;2022-07-09T07:30:02;18.50;90.60
14771;DHT22;7477;45.222;5.688;2022-07-09T07:33:22;18.60;89.30
14771;DHT22;7477;45.222;5.688;2022-07-09T07:36:41;18.60;89.20
14771;DHT22;7477;45.222;5.688;2022-07-09T07:40:00;18.70;88.60
14771;DHT22;7477;45.222;5.688;2022-07-09T07:43:20;18.80;88.70
14771;DHT22;7477;45.222;5.688;2022-07-09T07:46:39;18.90;88.50
14771;DHT22;7477;45.222;5.688;2022-07-09T07:49:58;19.00;87.00
14771;DHT22;7477;45.222;5.688;2022-07-09T07:53:19;19.10;87.40
14771;DHT22;7477;45.222;5.688;2022-07-09T07:56:38;19.20;88.50
14771;DHT22;7477;45.222;5.688;2022-07-09T07:59:58;19.30;88.60
14771;DHT22;7477;45.222;5.688;2022-07-09T08:03:18;19.50;88.80
14771;DHT22;7477;45.222;5.688;2022-07-09T08:06:37;19.50;88.10
14771;DHT22;7477;45.222;5.688;2022-07-09T08:09:56;19.60;88.00
14771;DHT22;7477;45.222;5.688;2022-07-09T08:13:16;19.60;86.40
14771;DHT22;7477;45.222;5.688;2022-07-09T08:16:35;19.70;86.70
14771;DHT22;7477;45.222;5.688;2022-07-09T08:19:54;19.80;87.00
14771;DHT22;7477;45.222;5.688;2022-07-09T08:23:13;19.90;86.10
14771;DHT22;7477;45.222;5.688;2022-07-09T08:26:33;19.90;85.80
14771;DHT22;7477;45.222;5.688;2022-07-09T08:29:53;20.00;86.60
14771;DHT22;7477;45.222;5.688;2022-07-09T08:33:12;20.10;85.50
14771;DHT22;7477;45.222;5.688;2022-07-09T08:36:31;20.20;85.70
14771;DHT22;7477;45.222;5.688;2022-07-09T08:39:50;20.20;85.00
14771;DHT22;7477;45.222;5.688;2022-07-09T08:43:10;20.20;85.10
14771;DHT22;7477;45.222;5.688;2022-07-09T08:46:32;20.30;85.00
14771;DHT22;7477;45.222;5.688;2022-07-09T08:49:56;19.10;83.30
14771;DHT22;7477;45.222;5.688;2022-07-09T08:53:17;20.20;84.40
14771;DHT22;7477;45.222;5.688;2022-07-09T08:56:37;20.20;84.20
14771;DHT22;7477;45.222;5.688;2022-07-09T08:59:56;20.30;84.40
14771;DHT22;7477;45.222;5.688;2022-07-09T09:03:19;20.20;84.30
14771;DHT22;7477;45.222;5.688;2022-07-09T09:06:39;20.40;85.80
14771;DHT22;7477;45.222;5.688;2022-07-09T09:09:58;20.50;85.60
14771;DHT22;7477;45.222;5.688;2022-07-09T09:13:18;20.40;84.70
14771;DHT22;7477;45.222;5.688;2022-07-09T09:16:42;20.30;85.40
14771;DHT22;7477;45.222;5.688;2022-07-09T09:20:14;20.30;86.20
14771;DHT22;7477;45.222;5.688;2022-07-09T09:23:51;20.30;85.40
14771;DHT22;7477;45.222;5.688;2022-07-09T09:27:11;20.40;85.30
14771;DHT22;7477;45.222;5.688;2022-07-09T09:30:41;20.40;85.40
14771;DHT22;7477;45.222;5.688;2022-07-09T09:37:30;20.40;86.40
14771;DHT22;7477;45.222;5.688;2022-07-09T09:40:49;20.50;85.40
14771;DHT22;7477;45.222;5.688;2022-07-09T09:44:14;20.50;85.50
14771;DHT22;7477;45.222;5.688;2022-07-09T09:47:34;20.60;85.30
14771;DHT22;7477;45.222;5.688;2022-07-09T09:50:55;20.80;85.50
14771;DHT22;7477;45.222;5.688;2022-07-09T09:54:18;21.00;85.60
14771;DHT22;7477;45.222;5.688;2022-07-09T09:57:38;21.10;85.10
14771;DHT22;7477;45.222;5.688;2022-07-09T10:00:58;21.00;84.70
14771;DHT22;7477;45.222;5.688;2022-07-09T10:04:18;20.90;85.30
14771;DHT22;7477;45.222;5.688;2022-07-09T10:07:39;20.80;86.10
14771;DHT22;7477;45.222;5.688;2022-07-09T10:10:58;20.90;85.30
14771;DHT22;7477;45.222;5.688;2022-07-09T10:14:30;21.10;85.50
14771;DHT22;7477;45.222;5.688;2022-07-09T10:17:49;21.10;85.20
14771;DHT22;7477;45.222;5.688;2022-07-09T10:21:09;21.00;85.50
14771;DHT22;7477;45.222;5.688;2022-07-09T10:24:32;21.30;85.20
14771;DHT22;7477;45.222;5.688;2022-07-09T10:27:52;21.30;85.10
14771;DHT22;7477;45.222;5.688;2022-07-09T10:31:11;21.30;85.10
14771;DHT22;7477;45.222;5.688;2022-07-09T10:35:01;21.30;84.80
14771;DHT22;7477;45.222;5.688;2022-07-09T10:38:21;21.40;84.90
14771;DHT22;7477;45.222;5.688;2022-07-09T10:41:41;21.40;85.00
14771;DHT22;7477;45.222;5.688;2022-07-09T10:45:00;21.40;84.70
14771;DHT22;7477;45.222;5.688;2022-07-09T10:48:20;21.60;84.20
14771;DHT22;7477;45.222;5.688;2022-07-09T10:51:39;21.50;84.60
14771;DHT22;7477;45.222;5.688;2022-07-09T10:55:00;21.60;84.30
14771;DHT22;7477;45.222;5.688;2022-07-09T10:58:20;21.70;84.30
14771;DHT22;7477;45.222;5.688;2022-07-09T11:01:40;21.70;84.70
14771;DHT22;7477;45.222;5.688;2022-07-09T11:04:59;22.00;84.50
14771;DHT22;7477;45.222;5.688;2022-07-09T11:08:19;22.10;84.40
14771;DHT22;7477;45.222;5.688;2022-07-09T11:11:41;21.90;84.50
14771;DHT22;7477;45.222;5.688;2022-07-09T11:15:01;21.90;84.70
14771;DHT22;7477;45.222;5.688;2022-07-09T11:18:26;21.90;84.80
14771;DHT22;7477;45.222;5.688;2022-07-09T11:21:46;21.90;84.50
14771;DHT22;7477;45.222;5.688;2022-07-09T11:25:07;22.10;84.80
14771;DHT22;7477;45.222;5.688;2022-07-09T11:28:26;22.10;85.00
14771;DHT22;7477;45.222;5.688;2022-07-09T11:31:50;22.20;84.90
14771;DHT22;7477;45.222;5.688;2022-07-09T11:35:11;22.30;85.00
14771;DHT22;7477;45.222;5.688;2022-07-09T11:38:30;22.30;84.40
14771;DHT22;7477;45.222;5.688;2022-07-09T11:41:49;22.50;84.60
14771;DHT22;7477;45.222;5.688;2022-07-09T11:45:09;22.60;84.20
14771;DHT22;7477;45.222;5.688;2022-07-09T11:48:29;22.90;84.00
14771;DHT22;7477;45.222;5.688;2022-07-09T11:51:48;24.00;81.80
14771;DHT22;7477;45.222;5.688;2022-07-09T11:55:08;24.20;80.80
14771;DHT22;7477;45.222;5.688;2022-07-09T11:58:28;24.60;80.20
14771;DHT22;7477;45.222;5.688;2022-07-09T12:01:47;24.80;78.80
14771;DHT22;7477;45.222;5.688;2022-07-09T12:05:08;24.80;78.50
14771;DHT22;7477;45.222;5.688;2022-07-09T12:08:29;25.00;78.20
14771;DHT22;7477;45.222;5.688;2022-07-09T12:11:49;25.10;78.00
14771;DHT22;7477;45.222;5.688;2022-07-09T12:15:08;25.30;77.60
14771;DHT22;7477;45.222;5.688;2022-07-09T12:18:28;25.40;76.00
14771;DHT22;7477;45.222;5.688;2022-07-09T12:21:47;25.50;75.30
14771;DHT22;7477;45.222;5.688;2022-07-09T12:25:07;25.50;75.60
14771;DHT22;7477;45.222;5.688;2022-07-09T12:28:27;25.50;74.50
14771;DHT22;7477;45.222;5.688;2022-07-09T12:31:46;25.50;76.20
14771;DHT22;7477;45.222;5.688;2022-07-09T12:35:06;25.70;75.60
14771;DHT22;7477;45.222;5.688;2022-07-09T12:38:26;25.80;73.00
14771;DHT22;7477;45.222;5.688;2022-07-09T12:41:45;25.80;73.30
14771;DHT22;7477;45.222;5.688;2022-07-09T12:45:05;25.80;72.60
14771;DHT22;7477;45.222;5.688;2022-07-09T12:48:24;25.80;72.90
14771;DHT22;7477;45.222;5.688;2022-07-09T12:51:43;25.70;72.70
14771;DHT22;7477;45.222;5.688;2022-07-09T12:55:04;25.60;72.60
14771;DHT22;7477;45.222;5.688;2022-07-09T12:58:23;25.70;72.40
14771;DHT22;7477;45.222;5.688;2022-07-09T13:01:43;25.50;72.30
14771;DHT22;7477;45.222;5.688;2022-07-09T13:05:03;25.60;72.00
14771;DHT22;7477;45.222;5.688;2022-07-09T13:08:22;25.90;70.90
14771;DHT22;7477;45.222;5.688;2022-07-09T13:11:42;26.00;69.90
14771;DHT22;7477;45.222;5.688;2022-07-09T13:15:02;25.90;70.10
14771;DHT22;7477;45.222;5.688;2022-07-09T13:18:21;25.80;70.30
14771;DHT22;7477;45.222;5.688;2022-07-09T13:21:40;26.10;69.80
14771;DHT22;7477;45.222;5.688;2022-07-09T13:25:00;26.30;68.80
14771;DHT22;7477;45.222;5.688;2022-07-09T13:28:19;26.60;68.90
14771;DHT22;7477;45.222;5.688;2022-07-09T13:31:38;26.80;67.10
14771;DHT22;7477;45.222;5.688;2022-07-09T13:34:57;26.90;67.00
14771;DHT22;7477;45.222;5.688;2022-07-09T13:38:16;26.90;66.20
14771;DHT22;7477;45.222;5.688;2022-07-09T13:41:35;26.80;67.10
14771;DHT22;7477;45.222;5.688;2022-07-09T13:44:55;27.00;66.50
14771;DHT22;7477;45.222;5.688;2022-07-09T13:48:14;26.90;65.60
14771;DHT22;7477;45.222;5.688;2022-07-09T13:51:33;26.30;68.40
14771;DHT22;7477;45.222;5.688;2022-07-09T13:54:53;26.90;66.00
14771;DHT22;7477;45.222;5.688;2022-07-09T13:58:12;26.90;66.40
14771;DHT22;7477;45.222;5.688;2022-07-09T14:01:32;27.00;67.10
14771;DHT22;7477;45.222;5.688;2022-07-09T14:04:51;27.20;66.90
14771;DHT22;7477;45.222;5.688;2022-07-09T14:08:11;27.30;66.00
14771;DHT22;7477;45.222;5.688;2022-07-09T14:11:31;27.40;65.90
14771;DHT22;7477;45.222;5.688;2022-07-09T14:14:51;27.50;65.50
14771;DHT22;7477;45.222;5.688;2022-07-09T14:18:10;27.60;66.20
14771;DHT22;7477;45.222;5.688;2022-07-09T14:21:30;27.80;66.40
14771;DHT22;7477;45.222;5.688;2022-07-09T14:24:50;28.00;65.20
14771;DHT22;7477;45.222;5.688;2022-07-09T14:28:09;28.00;65.30
14771;DHT22;7477;45.222;5.688;2022-07-09T14:31:28;28.00;64.80
14771;DHT22;7477;45.222;5.688;2022-07-09T14:34:47;28.10;65.80
14771;DHT22;7477;45.222;5.688;2022-07-09T14:38:07;28.30;65.20
14771;DHT22;7477;45.222;5.688;2022-07-09T14:41:26;28.50;64.30
14771;DHT22;7477;45.222;5.688;2022-07-09T14:44:45;28.30;64.70
14771;DHT22;7477;45.222;5.688;2022-07-09T14:48:05;28.10;64.70
14771;DHT22;7477;45.222;5.688;2022-07-09T14:51:27;27.70;65.50
14771;DHT22;7477;45.222;5.688;2022-07-09T14:54:46;27.50;66.00
14771;DHT22;7477;45.222;5.688;2022-07-09T14:58:05;27.40;66.30
14771;DHT22;7477;45.222;5.688;2022-07-09T15:01:24;27.40;66.60
14771;DHT22;7477;45.222;5.688;2022-07-09T15:04:43;27.40;66.90
14771;DHT22;7477;45.222;5.688;2022-07-09T15:08:03;27.50;66.10
14771;DHT22;7477;45.222;5.688;2022-07-09T15:11:23;27.50;66.20
14771;DHT22;7477;45.222;5.688;2022-07-09T15:14:42;27.50;67.10
14771;DHT22;7477;45.222;5.688;2022-07-09T15:18:03;27.70;66.90
14771;DHT22;7477;45.222;5.688;2022-07-09T15:21:22;28.20;66.10
14771;DHT22;7477;45.222;5.688;2022-07-09T15:24:42;28.60;63.90
14771;DHT22;7477;45.222;5.688;2022-07-09T15:28:02;28.70;64.10
14771;DHT22;7477;45.222;5.688;2022-07-09T15:31:21;28.90;63.20
14771;DHT22;7477;45.222;5.688;2022-07-09T15:34:43;29.00;62.50
14771;DHT22;7477;45.222;5.688;2022-07-09T15:38:04;29.10;63.00
14771;DHT22;7477;45.222;5.688;2022-07-09T15:41:24;29.10;63.30
14771;DHT22;7477;45.222;5.688;2022-07-09T15:44:43;29.10;63.10
14771;DHT22;7477;45.222;5.688;2022-07-09T15:48:03;29.20;64.00
14771;DHT22;7477;45.222;5.688;2022-07-09T15:51:24;29.10;63.80
14771;DHT22;7477;45.222;5.688;2022-07-09T15:54:44;29.20;64.30
14771;DHT22;7477;45.222;5.688;2022-07-09T15:58:03;29.40;63.70
14771;DHT22;7477;45.222;5.688;2022-07-09T16:01:22;29.50;64.30
14771;DHT22;7477;45.222;5.688;2022-07-09T16:04:44;29.80;64.30
14771;DHT22;7477;45.222;5.688;2022-07-09T16:08:03;30.00;62.40
14771;DHT22;7477;45.222;5.688;2022-07-09T16:11:23;29.90;61.10
14771;DHT22;7477;45.222;5.688;2022-07-09T16:15:02;29.80;61.10
14771;DHT22;7477;45.222;5.688;2022-07-09T16:18:22;29.70;60.50
14771;DHT22;7477;45.222;5.688;2022-07-09T16:21:41;29.30;61.10
14771;DHT22;7477;45.222;5.688;2022-07-09T16:25:01;28.90;61.30
14771;DHT22;7477;45.222;5.688;2022-07-09T16:28:20;28.70;62.00
14771;DHT22;7477;45.222;5.688;2022-07-09T16:31:40;28.60;62.70
14771;DHT22;7477;45.222;5.688;2022-07-09T16:35:00;28.50;64.90
14771;DHT22;7477;45.222;5.688;2022-07-09T16:38:19;28.50;65.50
14771;DHT22;7477;45.222;5.688;2022-07-09T16:41:39;28.50;66.70
14771;DHT22;7477;45.222;5.688;2022-07-09T16:44:58;28.50;67.20
14771;DHT22;7477;45.222;5.688;2022-07-09T16:48:18;28.50;67.80
14771;DHT22;7477;45.222;5.688;2022-07-09T16:51:37;28.30;68.90
14771;DHT22;7477;45.222;5.688;2022-07-09T16:54:56;28.30;69.20
14771;DHT22;7477;45.222;5.688;2022-07-09T16:58:16;28.30;70.10
14771;DHT22;7477;45.222;5.688;2022-07-09T17:01:35;28.20;70.00
14771;DHT22;7477;45.222;5.688;2022-07-09T17:04:55;28.00;70.80
14771;DHT22;7477;45.222;5.688;2022-07-09T17:08:14;28.00;71.30
14771;DHT22;7477;45.222;5.688;2022-07-09T17:11:33;27.80;71.30
14771;DHT22;7477;45.222;5.688;2022-07-09T17:14:53;27.80;71.60
14771;DHT22;7477;45.222;5.688;2022-07-09T17:18:12;27.80;71.80
14771;DHT22;7477;45.222;5.688;2022-07-09T17:21:32;27.70;71.90
14771;DHT22;7477;45.222;5.688;2022-07-09T17:24:51;27.60;72.00
14771;DHT22;7477;45.222;5.688;2022-07-09T17:28:10;27.50;72.20
14771;DHT22;7477;45.222;5.688;2022-07-09T17:31:30;27.30;72.60
14771;DHT22;7477;45.222;5.688;2022-07-09T17:34:52;27.20;73.00
14771;DHT22;7477;45.222;5.688;2022-07-09T17:38:11;27.10;73.00
14771;DHT22;7477;45.222;5.688;2022-07-09T17:41:31;27.20;73.10
14771;DHT22;7477;45.222;5.688;2022-07-09T17:44:50;27.20;73.30
14771;DHT22;7477;45.222;5.688;2022-07-09T17:48:10;27.30;73.00
14771;DHT22;7477;45.222;5.688;2022-07-09T17:51:30;27.20;73.30
14771;DHT22;7477;45.222;5.688;2022-07-09T17:54:49;27.30;72.70
14771;DHT22;7477;45.222;5.688;2022-07-09T17:58:08;27.20;73.10
14771;DHT22;7477;45.222;5.688;2022-07-09T18:01:28;27.10;73.10
14771;DHT22;7477;45.222;5.688;2022-07-09T18:04:47;27.10;73.30
14771;DHT22;7477;45.222;5.688;2022-07-09T18:08:06;27.00;72.90
14771;DHT22;7477;45.222;5.688;2022-07-09T18:11:26;27.00;72.60
14771;DHT22;7477;45.222;5.688;2022-07-09T18:14:45;26.90;72.40
14771;DHT22;7477;45.222;5.688;2022-07-09T18:18:04;26.80;72.40
14771;DHT22;7477;45.222;5.688;2022-07-09T18:21:23;26.80;72.80
14771;DHT22;7477;45.222;5.688;2022-07-09T18:24:42;26.70;72.30
14771;DHT22;7477;45.222;5.688;2022-07-09T18:28:01;26.60;72.60
14771;DHT22;7477;45.222;5.688;2022-07-09T18:31:22;26.50;72.60
14771;DHT22;7477;45.222;5.688;2022-07-09T18:34:41;26.40;73.00
14771;DHT22;7477;45.222;5.688;2022-07-09T18:38:02;26.40;72.90
14771;DHT22;7477;45.222;5.688;2022-07-09T18:41:22;26.30;72.80
14771;DHT22;7477;45.222;5.688;2022-07-09T18:44:42;26.20;72.70
14771;DHT22;7477;45.222;5.688;2022-07-09T18:48:05;26.10;72.60
14771;DHT22;7477;45.222;5.688;2022-07-09T18:51:24;26.10;72.90
14771;DHT22;7477;45.222;5.688;2022-07-09T18:54:43;26.10;73.00
14771;DHT22;7477;45.222;5.688;2022-07-09T18:58:03;25.90;73.10
14771;DHT22;7477;45.222;5.688;2022-07-09T19:01:22;25.80;73.20
14771;DHT22;7477;45.222;5.688;2022-07-09T19:04:42;25.70;73.40
14771;DHT22;7477;45.222;5.688;2022-07-09T19:08:01;25.70;73.60
14771;DHT22;7477;45.222;5.688;2022-07-09T19:11:21;25.60;73.80
14771;DHT22;7477;45.222;5.688;2022-07-09T19:14:40;25.60;74.10
14771;DHT22;7477;45.222;5.688;2022-07-09T19:18:00;25.50;74.10
14771;DHT22;7477;45.222;5.688;2022-07-09T19:21:19;25.40;74.20
14771;DHT22;7477;45.222;5.688;2022-07-09T19:24:38;25.40;74.30
14771;DHT22;7477;45.222;5.688;2022-07-09T19:27:57;25.40;74.50
14771;DHT22;7477;45.222;5.688;2022-07-09T19:31:18;25.30;74.70
14771;DHT22;7477;45.222;5.688;2022-07-09T19:34:56;25.20;75.00
14771;DHT22;7477;45.222;5.688;2022-07-09T19:38:18;25.10;75.00
14771;DHT22;7477;45.222;5.688;2022-07-09T19:41:38;25.10;75.20
14771;DHT22;7477;45.222;5.688;2022-07-09T19:44:57;25.00;75.20
14771;DHT22;7477;45.222;5.688;2022-07-09T19:48:16;25.00;76.10
14771;DHT22;7477;45.222;5.688;2022-07-09T19:51:36;25.00;75.50
14771;DHT22;7477;45.222;5.688;2022-07-09T19:54:55;24.90;75.60
14771;DHT22;7477;45.222;5.688;2022-07-09T19:58:14;24.80;75.50
14771;DHT22;7477;45.222;5.688;2022-07-09T20:01:34;24.80;75.60
14771;DHT22;7477;45.222;5.688;2022-07-09T20:04:53;24.70;75.50
14771;DHT22;7477;45.222;5.688;2022-07-09T20:08:12;24.70;75.60
14771;DHT22;7477;45.222;5.688;2022-07-09T20:11:32;24.70;75.70
14771;DHT22;7477;45.222;5.688;2022-07-09T20:14:51;24.60;75.90
14771;DHT22;7477;45.222;5.688;2022-07-09T20:18:11;24.60;76.00
14771;DHT22;7477;45.222;5.688;2022-07-09T20:21:31;24.50;75.90
14771;DHT22;7477;45.222;5.688;2022-07-09T20:24:51;24.50;76.00
14771;DHT22;7477;45.222;5.688;2022-07-09T20:28:10;24.40;76.20
14771;DHT22;7477;45.222;5.688;2022-07-09T20:31:30;24.40;76.30
14771;DHT22;7477;45.222;5.688;2022-07-09T20:34:49;24.40;76.20
14771;DHT22;7477;45.222;5.688;2022-07-09T20:38:08;24.30;76.50
14771;DHT22;7477;45.222;5.688;2022-07-09T20:41:27;24.30;76.50
14771;DHT22;7477;45.222;5.688;2022-07-09T20:44:47;24.20;76.60
14771;DHT22;7477;45.222;5.688;2022-07-09T20:48:06;24.20;76.60
14771;DHT22;7477;45.222;5.688;2022-07-09T20:51:25;24.20;76.50
14771;DHT22;7477;45.222;5.688;2022-07-09T20:54:45;24.20;76.90
14771;DHT22;7477;45.222;5.688;2022-07-09T20:58:05;24.10;77.00
14771;DHT22;7477;45.222;5.688;2022-07-09T21:01:24;24.10;77.20
14771;DHT22;7477;45.222;5.688;2022-07-09T21:04:44;24.20;77.00
14771;DHT22;7477;45.222;5.688;2022-07-09T21:08:04;24.10;77.90
14771;DHT22;7477;45.222;5.688;2022-07-09T21:11:23;24.40;76.80
14771;DHT22;7477;45.222;5.688;2022-07-09T21:14:42;24.50;76.50
14771;DHT22;7477;45.222;5.688;2022-07-09T21:18:02;24.50;76.40
14771;DHT22;7477;45.222;5.688;2022-07-09T21:21:40;24.50;76.50
14771;DHT22;7477;45.222;5.688;2022-07-09T21:24:59;24.50;76.30